KABR/ABR METAR and TAF weather

Enter ICAO airport designator
Station Type Date Time Source
KABR METAR 2019/09/20 19:53 UTC NOAA

KABR 201953Z AUTO 18018G30KT 10SM CLR 31/19 A2975 RMK AO2 PK WND 16030/1945 SLP064 T03060194


Station Type Date Time Source
KABR Decoded METAR 2019/09/20 19:53 UTC NOAA

ABERDEEN REGIONAL AIRPORT, SD, United States (KABR) 45-27N 098-25W 400M
Sep 20, 2019 - 03:53 PM EDT / 2019.09.20 1953 UTC
Wind: from the S (180 degrees) at 21 MPH (18 KT) gusting to 35 MPH (30 KT):0
Visibility: 10 mile(s):0
Sky conditions: clear
Temperature: 87.1 F (30.6 C)
Dew Point: 66.9 F (19.4 C)
Relative Humidity: 51%
Pressure (altimeter): 29.75 in. Hg (1007 hPa)
ob: KABR 201953Z AUTO 18018G30KT 10SM CLR 31/19 A2975 RMK AO2 PK WND 16030/1945 SLP064 T03060194
cycle: 20

Station Type Date Time Source
KABR TAF 2019/09/20 18:39 UTC NOAA

TAF KABR 201736Z 2018/2118 17019G27KT P6SM SKC
FM210000 16021G27KT P6SM VCTS BKN180CB
FM211000 18011KT P6SM BKN050

Example: see airport list